createdAt,value
2017-09-28T00:02:02.814Z,14.1
2017-09-28T00:07:03.163Z,14.0
2017-09-28T00:12:02.875Z,14.0
2017-09-28T00:17:03.867Z,14.0
2017-09-28T00:22:03.344Z,13.8
2017-09-28T00:27:03.020Z,13.8
2017-09-28T00:32:03.696Z,13.7
2017-09-28T00:37:03.026Z,13.6
2017-09-28T00:42:02.852Z,13.5
2017-09-28T00:47:03.545Z,13.5
2017-09-28T00:52:02.729Z,13.4
2017-09-28T00:57:03.339Z,13.4
2017-09-28T01:02:03.156Z,13.3
2017-09-28T01:07:03.247Z,13.3
2017-09-28T01:12:03.128Z,13.3
2017-09-28T01:17:03.012Z,13.2
2017-09-28T01:22:02.921Z,13.2
2017-09-28T01:27:03.662Z,13.2
2017-09-28T01:32:03.427Z,13.3
2017-09-28T01:37:03.331Z,13.2
2017-09-28T01:42:03.054Z,13.3
2017-09-28T01:47:03.055Z,13.2
2017-09-28T01:52:02.932Z,13.1
2017-09-28T01:57:02.816Z,13.1
2017-09-28T02:02:03.426Z,13.0
2017-09-28T02:07:03.222Z,13.0
2017-09-28T02:12:03.332Z,13.0
2017-09-28T02:17:03.393Z,13.1
2017-09-28T02:22:02.818Z,13.1
2017-09-28T02:27:03.462Z,13.1
2017-09-28T02:32:03.596Z,13.1
2017-09-28T02:37:03.418Z,13.0
2017-09-28T02:42:03.470Z,13.0
2017-09-28T02:47:03.012Z,13.0
2017-09-28T02:52:03.261Z,12.9
2017-09-28T02:57:03.548Z,13.0
2017-09-28T03:02:02.816Z,13.0
2017-09-28T03:07:03.284Z,12.9
2017-09-28T03:12:02.790Z,12.8
2017-09-28T03:17:03.162Z,12.8
2017-09-28T03:22:03.422Z,12.7
2017-09-28T03:27:02.805Z,25.5
2017-09-28T03:32:02.970Z,25.7
2017-09-28T03:37:03.302Z,12.8
2017-09-28T03:42:02.687Z,12.8
2017-09-28T03:47:02.958Z,12.8
2017-09-28T03:52:03.177Z,12.7
2017-09-28T03:57:03.480Z,12.7
2017-09-28T04:02:02.965Z,12.6
2017-09-28T04:07:03.246Z,12.7
2017-09-28T04:12:02.704Z,12.6
2017-09-28T04:17:03.157Z,12.6
2017-09-28T04:22:03.378Z,12.6
2017-09-28T04:27:02.770Z,12.6
2017-09-28T04:32:03.124Z,12.6
2017-09-28T04:37:03.379Z,12.6
2017-09-28T04:42:03.595Z,12.6
2017-09-28T04:47:05.024Z,12.6
2017-09-28T04:52:03.305Z,12.5
2017-09-28T04:57:02.749Z,12.5
2017-09-28T05:02:13.736Z,12.5
2017-09-28T05:07:03.461Z,12.4
2017-09-28T05:12:03.055Z,12.3
2017-09-28T05:17:13.934Z,12.2
2017-09-28T05:22:03.098Z,12.1
2017-09-28T05:27:03.554Z,12.1
2017-09-28T05:32:13.428Z,12.0
2017-09-28T05:37:02.701Z,12.0
2017-09-28T05:42:03.165Z,12.0
2017-09-28T05:47:13.895Z,12.0
2017-09-28T05:52:03.314Z,12.1
2017-09-28T05:57:02.868Z,12.2
2017-09-28T06:02:13.474Z,12.4
2017-09-28T06:07:03.297Z,12.6
2017-09-28T06:12:02.799Z,12.5
2017-09-28T06:17:13.766Z,12.7
2017-09-28T06:22:02.953Z,12.9
2017-09-28T06:27:03.353Z,13.1
2017-09-28T06:32:13.046Z,13.5
2017-09-28T06:37:03.441Z,13.5
2017-09-28T06:42:02.877Z,14.2
2017-09-28T06:47:17.817Z,14.1
2017-09-28T06:52:02.954Z,14.6
2017-09-28T06:57:03.357Z,14.6
2017-09-28T07:02:13.119Z,14.8
2017-09-28T07:07:03.166Z,15.1
2017-09-28T07:12:03.593Z,15.2
2017-09-28T07:17:13.618Z,15.3
2017-09-28T07:22:03.452Z,15.3
2017-09-28T07:27:02.853Z,15.4
2017-09-28T07:32:13.541Z,15.8
2017-09-28T07:37:03.261Z,15.8
2017-09-28T07:42:02.751Z,16.0
2017-09-28T07:47:17.681Z,16.6
2017-09-28T07:52:03.183Z,16.6
2017-09-28T07:57:03.593Z,17.3
2017-09-28T08:02:13.474Z,17.2
2017-09-28T08:07:02.809Z,17.6
2017-09-28T08:12:03.497Z,18.0
2017-09-28T08:17:17.604Z,18.0
2017-09-28T08:22:03.401Z,18.1
2017-09-28T08:27:02.957Z,18.4
2017-09-28T08:32:13.668Z,18.7
2017-09-28T08:37:03.186Z,19.2
2017-09-28T08:42:03.498Z,19.6
2017-09-28T08:47:09.132Z,20.0
2017-09-28T08:52:03.201Z,20.2
2017-09-28T08:57:03.402Z,20.5
2017-09-28T09:02:13.084Z,21.2
2017-09-28T09:07:03.214Z,21.3
2017-09-28T09:12:02.806Z,21.9
2017-09-28T09:17:13.473Z,22.5
2017-09-28T09:22:03.235Z,23.3
2017-09-28T09:27:02.784Z,23.3
2017-09-28T09:32:17.621Z,23.7
2017-09-28T09:37:03.186Z,23.8
2017-09-28T09:42:03.573Z,23.7
2017-09-28T09:47:16.595Z,24.2
2017-09-28T09:52:03.308Z,24.2
2017-09-28T09:57:02.694Z,24.6
2017-09-28T10:02:17.703Z,24.2
2017-09-28T10:07:03.418Z,24.2
2017-09-28T10:12:03.109Z,24.2
2017-09-28T10:17:13.972Z,24.3
2017-09-28T10:22:03.196Z,24.5
2017-09-28T10:27:02.741Z,24.4
2017-09-28T10:32:13.317Z,24.6
2017-09-28T10:37:03.306Z,24.8
2017-09-28T10:42:02.773Z,25.0
2017-09-28T10:47:13.675Z,25.7
2017-09-28T10:52:03.143Z,26.4
2017-09-28T10:57:03.600Z,26.3
2017-09-28T11:02:08.421Z,27.2
2017-09-28T11:07:03.130Z,27.2
2017-09-28T11:12:03.609Z,27.4
2017-09-28T11:17:17.794Z,27.3
2017-09-28T11:22:02.833Z,27.2
2017-09-28T11:27:03.349Z,27.2
2017-09-28T11:32:16.965Z,26.9
2017-09-28T11:37:03.187Z,26.8
2017-09-28T11:42:03.622Z,26.8
2017-09-28T11:47:13.646Z,26.5
2017-09-28T11:52:03.397Z,26.5
2017-09-28T11:57:03.187Z,26.4
2017-09-28T12:02:17.197Z,26.8
2017-09-28T12:07:02.987Z,27.6
2017-09-28T12:12:03.540Z,27.5
2017-09-28T12:17:13.526Z,27.6
2017-09-28T12:22:02.997Z,27.7
2017-09-28T12:27:03.451Z,27.9
2017-09-28T12:32:13.300Z,28.6
2017-09-28T12:37:03.497Z,29.0
2017-09-28T12:42:03.053Z,28.9
2017-09-28T12:47:14.093Z,28.9
2017-09-28T12:52:03.331Z,28.9
2017-09-28T12:57:02.884Z,28.9
2017-09-28T13:02:13.694Z,28.9
2017-09-28T13:07:03.321Z,28.9
2017-09-28T13:12:02.880Z,29.2
2017-09-28T13:17:17.081Z,29.1
2017-09-28T13:22:03.021Z,29.1
2017-09-28T13:27:03.531Z,29.3
2017-09-28T13:32:13.095Z,29.2
2017-09-28T13:37:03.368Z,29.1
2017-09-28T13:42:02.887Z,29.6
2017-09-28T13:47:13.560Z,29.5
2017-09-28T13:52:02.795Z,30.0
2017-09-28T13:57:03.314Z,30.0
2017-09-28T14:02:17.287Z,30.0
2017-09-28T14:07:03.111Z,29.4
2017-09-28T14:12:03.622Z,28.6
2017-09-28T14:17:17.962Z,27.9
2017-09-28T14:22:03.453Z,27.9
2017-09-28T14:27:02.902Z,27.7
2017-09-28T14:32:18.064Z,27.9
2017-09-28T14:37:02.808Z,27.9
2017-09-28T14:42:03.314Z,28.8
2017-09-28T14:47:17.654Z,28.8
2017-09-28T14:52:02.663Z,28.4
2017-09-28T14:57:03.148Z,28.2
2017-09-28T15:02:13.921Z,28.7
2017-09-28T15:07:03.554Z,28.8
2017-09-28T15:12:03.144Z,29.5
2017-09-28T15:17:14.108Z,31.0
2017-09-28T15:22:02.897Z,30.9
2017-09-28T15:27:03.404Z,31.3
2017-09-28T15:32:13.167Z,30.2
2017-09-28T15:37:02.988Z,30.2
2017-09-28T15:42:03.377Z,29.3
2017-09-28T15:47:13.339Z,29.7
2017-09-28T15:52:03.295Z,28.0
2017-09-28T15:57:02.801Z,27.9
2017-09-28T16:02:13.668Z,29.1
2017-09-28T16:07:02.997Z,30.0
2017-09-28T16:12:03.548Z,27.8
2017-09-28T16:17:13.316Z,26.4
2017-09-28T16:22:03.606Z,25.6
2017-09-28T16:27:03.129Z,25.5
2017-09-28T16:32:22.360Z,24.1
2017-09-28T16:37:02.991Z,24.1
2017-09-28T16:42:03.383Z,23.7
2017-09-28T16:47:17.443Z,23.3
2017-09-28T16:52:02.877Z,23.3
2017-09-28T16:57:03.320Z,23.2
2017-09-28T17:02:10.893Z,23.1
2017-09-28T17:07:03.450Z,23.0
2017-09-28T17:12:03.279Z,22.9
2017-09-28T17:17:13.621Z,22.8
2017-09-28T17:22:02.902Z,22.5
2017-09-28T17:27:03.301Z,22.2
2017-09-28T17:32:17.048Z,22.1
2017-09-28T17:37:03.293Z,21.8
2017-09-28T17:42:02.808Z,21.5
2017-09-28T17:47:11.453Z,21.2
2017-09-28T17:52:03.569Z,21.1
2017-09-28T17:57:02.866Z,20.9
2017-09-28T18:02:03.328Z,20.8
2017-09-28T18:07:02.951Z,20.5
2017-09-28T18:12:03.328Z,20.5
2017-09-28T18:17:03.655Z,20.2
2017-09-28T18:22:03.102Z,20.1
2017-09-28T18:27:03.383Z,20.0
2017-09-28T18:32:03.003Z,19.8
2017-09-28T18:37:03.082Z,19.8
2017-09-28T18:42:03.352Z,19.8
2017-09-28T18:47:02.728Z,19.7
2017-09-28T18:52:02.974Z,19.6
2017-09-28T18:57:03.244Z,19.5
2017-09-28T19:02:03.640Z,19.4
2017-09-28T19:07:02.927Z,19.4
2017-09-28T19:12:03.459Z,19.3
2017-09-28T19:17:02.955Z,19.3
2017-09-28T19:22:03.261Z,19.2
2017-09-28T19:27:03.519Z,19.1
2017-09-28T19:32:02.889Z,19.1
2017-09-28T19:37:03.153Z,19.0
2017-09-28T19:42:03.393Z,18.9
2017-09-28T19:47:02.823Z,18.8
2017-09-28T19:52:03.070Z,18.5
2017-09-28T19:57:03.336Z,18.4
2017-09-28T20:02:02.743Z,18.3
2017-09-28T20:07:03.093Z,18.4
2017-09-28T20:12:03.541Z,18.4
2017-09-28T20:17:03.131Z,18.3
2017-09-28T20:22:03.223Z,18.2
2017-09-28T20:27:03.503Z,18.1
2017-09-28T20:32:02.972Z,18.0
2017-09-28T20:37:03.232Z,17.9
2017-09-28T20:42:03.423Z,17.7
2017-09-28T20:47:02.962Z,17.8
2017-09-28T20:52:03.188Z,17.8
2017-09-28T20:57:03.586Z,17.7
2017-09-28T21:02:02.892Z,17.7
2017-09-28T21:07:03.342Z,17.6
2017-09-28T21:12:02.850Z,17.6
2017-09-28T21:17:03.394Z,17.6
2017-09-28T21:22:03.558Z,17.6
2017-09-28T21:27:02.984Z,17.5
2017-09-28T21:32:03.280Z,17.4
2017-09-28T21:37:03.605Z,17.3
2017-09-28T21:42:02.918Z,17.2
2017-09-28T21:47:03.193Z,17.1
2017-09-28T21:52:03.428Z,17.1
2017-09-28T21:57:02.923Z,17.0
2017-09-28T22:02:03.395Z,17.0
2017-09-28T22:07:03.007Z,17.0
2017-09-28T22:12:03.358Z,17.0
2017-09-28T22:22:03.585Z,16.8
2017-09-28T22:27:02.731Z,16.9
2017-09-28T22:32:10.267Z,16.8
2017-09-28T22:37:02.877Z,16.7
2017-09-28T22:42:03.362Z,16.6
2017-09-28T22:47:02.872Z,16.6
2017-09-28T22:52:02.767Z,16.5
2017-09-28T22:57:03.232Z,16.6
2017-09-28T23:02:02.645Z,16.5
2017-09-28T23:07:03.202Z,16.4
2017-09-28T23:12:02.986Z,16.4
2017-09-28T23:17:03.782Z,16.3
2017-09-28T23:22:03.401Z,16.2
2017-09-28T23:27:03.311Z,16.1
2017-09-28T23:32:02.870Z,16.1
2017-09-28T23:37:03.634Z,16.1
2017-09-28T23:42:03.297Z,16.2
2017-09-28T23:47:02.986Z,16.3
2017-09-28T23:52:03.572Z,16.2
2017-09-28T23:57:03.276Z,16.2
